sensor_id;sensor_type;location;lat;lon;timestamp;pressure;altitude;pressure_sealevel;temperature;humidity
48968;BME280;46511;53.148;8.204;2023-09-12T00:00:45;101214.66;;;22.85;100.00
48968;BME280;46511;53.148;8.204;2023-09-12T00:03:19;101224.50;;;23.12;100.00
48968;BME280;46511;53.148;8.204;2023-09-12T00:05:57;101234.91;;;23.16;100.00
48968;BME280;46511;53.148;8.204;2023-09-12T00:08:24;101251.25;;;23.06;100.00
48968;BME280;46511;53.148;8.204;2023-09-12T00:11:03;101252.44;;;23.30;100.00
48968;BME280;46511;53.148;8.204;2023-09-12T00:13:30;101251.00;;;23.18;100.00
48968;BME280;46511;53.148;8.204;2023-09-12T00:15:56;101260.53;;;23.22;100.00
48968;BME280;46511;53.148;8.204;2023-09-12T00:18:28;101263.28;;;23.30;100.00
48968;BME280;46511;53.148;8.204;2023-09-12T00:20:54;101265.84;;;23.31;100.00
48968;BME280;46511;53.148;8.204;2023-09-12T00:23:21;101268.25;;;23.34;100.00
48968;BME280;46511;53.148;8.204;2023-09-12T00:25:49;101259.94;;;23.36;100.00
48968;BME280;46511;53.148;8.204;2023-09-12T00:28:16;101263.69;;;23.17;100.00
48968;BME280;46511;53.148;8.204;2023-09-12T00:30:42;101262.31;;;23.39;100.00
48968;BME280;46511;53.148;8.204;2023-09-12T00:33:08;101257.84;;;23.30;100.00
48968;BME280;46511;53.148;8.204;2023-09-12T00:35:39;101281.97;;;23.15;100.00
48968;BME280;46511;53.148;8.204;2023-09-12T00:38:11;101292.72;;;23.25;100.00
48968;BME280;46511;53.148;8.204;2023-09-12T00:40:37;101294.00;;;23.13;100.00
48968;BME280;46511;53.148;8.204;2023-09-12T00:43:03;101302.34;;;23.01;100.00
48968;BME280;46511;53.148;8.204;2023-09-12T00:45:30;101313.28;;;22.82;100.00
48968;BME280;46511;53.148;8.204;2023-09-12T00:48:01;101305.31;;;22.80;100.00
48968;BME280;46511;53.148;8.204;2023-09-12T00:50:34;101298.16;;;22.89;100.00
48968;BME280;46511;53.148;8.204;2023-09-12T00:53:01;101291.22;;;23.04;100.00
48968;BME280;46511;53.148;8.204;2023-09-12T00:55:29;101280.91;;;22.90;100.00
48968;BME280;46511;53.148;8.204;2023-09-12T00:57:55;101286.03;;;22.93;100.00
48968;BME280;46511;53.148;8.204;2023-09-12T01:00:22;101283.75;;;23.06;100.00
48968;BME280;46511;53.148;8.204;2023-09-12T01:02:53;101283.00;;;22.96;100.00
48968;BME280;46511;53.148;8.204;2023-09-12T01:05:25;101280.66;;;23.01;100.00
48968;BME280;46511;53.148;8.204;2023-09-12T01:07:59;101285.72;;;22.96;100.00
48968;BME280;46511;53.148;8.204;2023-09-12T01:10:30;101291.63;;;22.82;100.00
48968;BME280;46511;53.148;8.204;2023-09-12T01:12:56;101296.81;;;22.75;100.00
48968;BME280;46511;53.148;8.204;2023-09-12T01:15:28;101305.47;;;22.79;100.00
48968;BME280;46511;53.148;8.204;2023-09-12T01:17:54;101300.75;;;22.81;100.00
48968;BME280;46511;53.148;8.204;2023-09-12T01:20:23;101289.38;;;22.77;100.00
48968;BME280;46511;53.148;8.204;2023-09-12T01:25:50;101291.94;;;22.79;100.00
48968;BME280;46511;53.148;8.204;2023-09-12T01:28:25;101295.41;;;22.71;100.00
48968;BME280;46511;53.148;8.204;2023-09-12T01:31:00;101312.81;;;22.69;100.00
48968;BME280;46511;53.148;8.204;2023-09-12T01:33:29;101317.50;;;22.49;100.00
48968;BME280;46511;53.148;8.204;2023-09-12T01:35:55;101301.44;;;22.65;100.00
48968;BME280;46511;53.148;8.204;2023-09-12T01:38:26;101270.91;;;22.45;100.00
48968;BME280;46511;53.148;8.204;2023-09-12T01:40:53;101269.50;;;22.69;100.00
48968;BME280;46511;53.148;8.204;2023-09-12T01:43:26;101268.81;;;22.67;100.00
48968;BME280;46511;53.148;8.204;2023-09-12T01:45:53;101269.09;;;22.64;100.00
48968;BME280;46511;53.148;8.204;2023-09-12T01:48:21;101261.75;;;22.56;100.00
48968;BME280;46511;53.148;8.204;2023-09-12T01:50:48;101261.03;;;22.72;100.00
48968;BME280;46511;53.148;8.204;2023-09-12T01:53:15;101253.56;;;22.66;100.00
48968;BME280;46511;53.148;8.204;2023-09-12T01:55:47;101270.09;;;22.63;100.00
48968;BME280;46511;53.148;8.204;2023-09-12T01:58:13;101281.84;;;22.53;100.00
48968;BME280;46511;53.148;8.204;2023-09-12T02:00:40;101289.00;;;22.45;100.00
48968;BME280;46511;53.148;8.204;2023-09-12T02:03:07;101279.16;;;22.26;100.00
48968;BME280;46511;53.148;8.204;2023-09-12T02:05:33;101229.03;;;22.22;100.00
48968;BME280;46511;53.148;8.204;2023-09-12T02:08:00;101216.22;;;22.24;100.00
48968;BME280;46511;53.148;8.204;2023-09-12T02:10:27;101214.06;;;22.45;100.00
48968;BME280;46511;53.148;8.204;2023-09-12T02:12:58;101207.34;;;22.49;100.00
48968;BME280;46511;53.148;8.204;2023-09-12T02:15:25;101197.03;;;22.35;100.00
48968;BME280;46511;53.148;8.204;2023-09-12T02:17:51;101203.09;;;22.29;100.00
48968;BME280;46511;53.148;8.204;2023-09-12T02:20:18;101198.78;;;22.36;100.00
48968;BME280;46511;53.148;8.204;2023-09-12T02:22:45;101210.78;;;22.24;100.00
48968;BME280;46511;53.148;8.204;2023-09-12T02:25:12;101216.84;;;22.18;100.00
48968;BME280;46511;53.148;8.204;2023-09-12T02:27:43;101206.91;;;22.09;100.00
48968;BME280;46511;53.148;8.204;2023-09-12T02:30:14;101219.91;;;22.23;100.00
48968;BME280;46511;53.148;8.204;2023-09-12T02:32:46;101231.41;;;22.52;100.00
48968;BME280;46511;53.148;8.204;2023-09-12T02:35:12;101257.78;;;22.50;100.00
48968;BME280;46511;53.148;8.204;2023-09-12T02:37:44;101289.66;;;22.02;100.00
48968;BME280;46511;53.148;8.204;2023-09-12T02:40:15;101303.72;;;22.15;100.00
48968;BME280;46511;53.148;8.204;2023-09-12T02:42:49;101308.75;;;22.37;100.00
48968;BME280;46511;53.148;8.204;2023-09-12T02:45:15;101306.38;;;22.24;100.00
48968;BME280;46511;53.148;8.204;2023-09-12T02:47:47;101312.47;;;22.36;100.00
48968;BME280;46511;53.148;8.204;2023-09-12T02:50:13;101307.75;;;22.38;100.00
48968;BME280;46511;53.148;8.204;2023-09-12T02:52:44;101309.66;;;22.28;100.00
48968;BME280;46511;53.148;8.204;2023-09-12T02:55:12;101302.91;;;22.32;100.00
48968;BME280;46511;53.148;8.204;2023-09-12T02:57:38;101297.19;;;22.35;100.00
48968;BME280;46511;53.148;8.204;2023-09-12T03:00:10;101290.50;;;22.39;100.00
48968;BME280;46511;53.148;8.204;2023-09-12T03:02:37;101284.44;;;22.45;100.00
48968;BME280;46511;53.148;8.204;2023-09-12T03:05:03;101273.94;;;22.42;100.00
48968;BME280;46511;53.148;8.204;2023-09-12T03:07:30;101273.16;;;22.32;100.00
48968;BME280;46511;53.148;8.204;2023-09-12T03:09:56;101257.16;;;22.39;100.00
48968;BME280;46511;53.148;8.204;2023-09-12T03:12:23;101251.97;;;22.45;100.00
48968;BME280;46511;53.148;8.204;2023-09-12T03:14:49;101252.44;;;22.41;100.00
48968;BME280;46511;53.148;8.204;2023-09-12T03:17:15;101253.97;;;22.43;100.00
48968;BME280;46511;53.148;8.204;2023-09-12T03:19:42;101256.31;;;22.38;100.00
48968;BME280;46511;53.148;8.204;2023-09-12T03:22:08;101246.97;;;22.50;100.00
48968;BME280;46511;53.148;8.204;2023-09-12T03:24:34;101245.41;;;22.48;100.00
48968;BME280;46511;53.148;8.204;2023-09-12T03:27:06;101241.66;;;22.31;100.00
48968;BME280;46511;53.148;8.204;2023-09-12T03:29:33;101238.13;;;22.31;100.00
48968;BME280;46511;53.148;8.204;2023-09-12T03:31:59;101239.88;;;22.22;100.00
48968;BME280;46511;53.148;8.204;2023-09-12T03:34:31;101228.56;;;22.09;100.00
48968;BME280;46511;53.148;8.204;2023-09-12T03:36:57;101214.59;;;22.04;100.00
48968;BME280;46511;53.148;8.204;2023-09-12T03:39:23;101208.31;;;22.13;100.00
48968;BME280;46511;53.148;8.204;2023-09-12T03:41:50;101199.19;;;22.14;100.00
48968;BME280;46511;53.148;8.204;2023-09-12T03:44:21;101201.66;;;22.25;100.00
48968;BME280;46511;53.148;8.204;2023-09-12T03:46:47;101196.97;;;22.27;100.00
48968;BME280;46511;53.148;8.204;2023-09-12T03:49:18;101123.03;;;21.81;100.00
48968;BME280;46511;53.148;8.204;2023-09-12T03:51:50;101202.94;;;22.31;100.00
48968;BME280;46511;53.148;8.204;2023-09-12T03:54:16;101200.53;;;22.28;100.00
48968;BME280;46511;53.148;8.204;2023-09-12T03:56:42;101197.97;;;22.26;100.00
48968;BME280;46511;53.148;8.204;2023-09-12T03:59:08;101203.38;;;22.26;100.00
48968;BME280;46511;53.148;8.204;2023-09-12T04:01:40;101201.13;;;22.21;100.00
48968;BME280;46511;53.148;8.204;2023-09-12T04:04:06;101199.59;;;22.19;100.00
48968;BME280;46511;53.148;8.204;2023-09-12T04:06:37;101202.91;;;22.13;100.00
48968;BME280;46511;53.148;8.204;2023-09-12T04:09:04;101211.00;;;22.13;100.00
48968;BME280;46511;53.148;8.204;2023-09-12T04:11:30;101204.06;;;22.10;100.00
48968;BME280;46511;53.148;8.204;2023-09-12T04:14:01;101205.78;;;22.02;100.00
48968;BME280;46511;53.148;8.204;2023-09-12T04:16:28;101200.06;;;22.05;100.00
48968;BME280;46511;53.148;8.204;2023-09-12T04:18:59;101206.94;;;21.99;100.00
48968;BME280;46511;53.148;8.204;2023-09-12T04:21:30;101217.81;;;21.89;100.00
48968;BME280;46511;53.148;8.204;2023-09-12T04:23:56;101237.22;;;21.75;100.00
48968;BME280;46511;53.148;8.204;2023-09-12T04:26:28;101242.03;;;21.81;100.00
48968;BME280;46511;53.148;8.204;2023-09-12T04:28:54;101230.91;;;21.84;100.00
48968;BME280;46511;53.148;8.204;2023-09-12T04:31:20;101240.88;;;21.84;100.00
48968;BME280;46511;53.148;8.204;2023-09-12T04:33:47;101243.75;;;21.82;100.00
48968;BME280;46511;53.148;8.204;2023-09-12T04:36:13;101249.69;;;21.86;100.00
48968;BME280;46511;53.148;8.204;2023-09-12T04:38:44;101246.72;;;21.89;100.00
48968;BME280;46511;53.148;8.204;2023-09-12T04:41:21;101249.69;;;21.86;100.00
48968;BME280;46511;53.148;8.204;2023-09-12T04:43:47;101254.25;;;21.85;100.00
48968;BME280;46511;53.148;8.204;2023-09-12T04:46:14;101250.38;;;21.88;100.00
48968;BME280;46511;53.148;8.204;2023-09-12T04:48:45;101253.25;;;21.86;100.00
48968;BME280;46511;53.148;8.204;2023-09-12T04:51:12;101262.47;;;21.93;100.00
48968;BME280;46511;53.148;8.204;2023-09-12T04:53:39;101256.03;;;22.04;100.00
48968;BME280;46511;53.148;8.204;2023-09-12T04:56:11;101250.06;;;22.10;100.00
48968;BME280;46511;53.148;8.204;2023-09-12T04:58:38;101252.72;;;22.20;100.00
48968;BME280;46511;53.148;8.204;2023-09-12T05:01:04;101262.84;;;22.18;100.00
48968;BME280;46511;53.148;8.204;2023-09-12T05:03:30;101257.00;;;22.13;100.00
48968;BME280;46511;53.148;8.204;2023-09-12T05:05:59;101260.81;;;22.20;100.00
48968;BME280;46511;53.148;8.204;2023-09-12T05:08:25;101267.41;;;22.17;100.00
48968;BME280;46511;53.148;8.204;2023-09-12T05:10:52;101267.25;;;22.19;100.00
48968;BME280;46511;53.148;8.204;2023-09-12T05:13:20;101269.53;;;22.14;100.00
48968;BME280;46511;53.148;8.204;2023-09-12T05:15:52;101268.47;;;22.24;100.00
48968;BME280;46511;53.148;8.204;2023-09-12T05:18:18;101270.53;;;22.13;100.00
48968;BME280;46511;53.148;8.204;2023-09-12T05:20:50;101273.56;;;22.10;100.00
48968;BME280;46511;53.148;8.204;2023-09-12T05:23:21;101267.00;;;22.03;100.00
48968;BME280;46511;53.148;8.204;2023-09-12T05:25:47;101276.44;;;21.99;100.00
48968;BME280;46511;53.148;8.204;2023-09-12T05:28:19;101265.81;;;22.15;100.00
48968;BME280;46511;53.148;8.204;2023-09-12T05:30:45;101278.97;;;22.10;100.00
48968;BME280;46511;53.148;8.204;2023-09-12T05:33:17;101268.94;;;22.20;100.00
48968;BME280;46511;53.148;8.204;2023-09-12T05:35:43;101275.16;;;21.93;100.00
48968;BME280;46511;53.148;8.204;2023-09-12T05:38:17;101271.13;;;22.07;100.00
48968;BME280;46511;53.148;8.204;2023-09-12T05:40:45;101265.81;;;22.15;100.00
48968;BME280;46511;53.148;8.204;2023-09-12T05:43:12;101266.78;;;22.23;100.00
48968;BME280;46511;53.148;8.204;2023-09-12T05:45:38;101279.16;;;22.26;100.00
48968;BME280;46511;53.148;8.204;2023-09-12T05:48:05;101270.97;;;22.36;100.00
48968;BME280;46511;53.148;8.204;2023-09-12T05:50:31;101273.25;;;22.40;100.00
48968;BME280;46511;53.148;8.204;2023-09-12T05:53:03;101266.81;;;22.41;100.00
48968;BME280;46511;53.148;8.204;2023-09-12T05:55:34;101261.84;;;22.19;100.00
48968;BME280;46511;53.148;8.204;2023-09-12T05:58:00;101263.47;;;22.30;100.00
48968;BME280;46511;53.148;8.204;2023-09-12T06:00:29;101268.94;;;22.47;100.00
48968;BME280;46511;53.148;8.204;2023-09-12T06:02:56;101267.81;;;22.40;100.00
48968;BME280;46511;53.148;8.204;2023-09-12T06:05:22;101270.00;;;22.37;100.00
48968;BME280;46511;53.148;8.204;2023-09-12T06:07:49;101269.88;;;22.56;100.00
48968;BME280;46511;53.148;8.204;2023-09-12T06:10:15;101266.22;;;22.47;100.00
48968;BME280;46511;53.148;8.204;2023-09-12T06:12:41;101271.59;;;22.30;100.00
48968;BME280;46511;53.148;8.204;2023-09-12T06:15:08;101287.66;;;22.59;100.00
48968;BME280;46511;53.148;8.204;2023-09-12T06:17:34;101280.88;;;22.27;100.00
48968;BME280;46511;53.148;8.204;2023-09-12T06:20:06;101277.00;;;22.57;100.00
48968;BME280;46511;53.148;8.204;2023-09-12T06:22:33;101272.41;;;22.85;100.00
48968;BME280;46511;53.148;8.204;2023-09-12T06:25:00;101257.72;;;22.78;100.00
48968;BME280;46511;53.148;8.204;2023-09-12T06:27:26;101250.28;;;22.80;100.00
48968;BME280;46511;53.148;8.204;2023-09-12T06:29:53;101247.91;;;22.77;100.00
48968;BME280;46511;53.148;8.204;2023-09-12T06:32:24;101244.81;;;23.07;100.00
48968;BME280;46511;53.148;8.204;2023-09-12T06:34:55;101249.22;;;23.08;100.00
48968;BME280;46511;53.148;8.204;2023-09-12T06:37:22;101242.72;;;23.01;100.00
48968;BME280;46511;53.148;8.204;2023-09-12T06:39:51;101241.03;;;23.00;100.00
48968;BME280;46511;53.148;8.204;2023-09-12T06:42:17;101232.47;;;22.87;100.00
48968;BME280;46511;53.148;8.204;2023-09-12T06:44:49;101228.31;;;22.83;100.00
48968;BME280;46511;53.148;8.204;2023-09-12T06:47:15;101232.81;;;22.92;100.00
48968;BME280;46511;53.148;8.204;2023-09-12T06:49:42;101229.75;;;22.87;100.00
48968;BME280;46511;53.148;8.204;2023-09-12T06:52:08;101222.34;;;23.15;100.00
48968;BME280;46511;53.148;8.204;2023-09-12T06:54:35;101222.31;;;23.33;100.00
48968;BME280;46511;53.148;8.204;2023-09-12T06:57:02;101229.44;;;23.34;100.00
48968;BME280;46511;53.148;8.204;2023-09-12T06:59:34;101228.44;;;23.35;100.00
48968;BME280;46511;53.148;8.204;2023-09-12T07:02:00;101238.53;;;23.25;100.00
48968;BME280;46511;53.148;8.204;2023-09-12T07:04:26;101234.78;;;23.26;100.00
48968;BME280;46511;53.148;8.204;2023-09-12T07:06:53;101243.09;;;23.50;100.00
48968;BME280;46511;53.148;8.204;2023-09-12T07:09:24;101242.91;;;23.70;100.00
48968;BME280;46511;53.148;8.204;2023-09-12T07:11:55;101249.13;;;23.62;100.00
48968;BME280;46511;53.148;8.204;2023-09-12T07:14:22;101248.09;;;23.89;100.00
48968;BME280;46511;53.148;8.204;2023-09-12T07:16:50;101243.31;;;23.83;100.00
48968;BME280;46511;53.148;8.204;2023-09-12T07:19:21;101248.75;;;23.83;100.00
48968;BME280;46511;53.148;8.204;2023-09-12T07:21:47;101253.97;;;24.10;100.00
48968;BME280;46511;53.148;8.204;2023-09-12T07:24:14;101263.94;;;23.76;100.00
48968;BME280;46511;53.148;8.204;2023-09-12T07:26:40;101257.44;;;23.94;100.00
48968;BME280;46511;53.148;8.204;2023-09-12T07:29:06;101260.66;;;23.64;100.00
48968;BME280;46511;53.148;8.204;2023-09-12T07:31:33;101255.88;;;23.84;100.00
48968;BME280;46511;53.148;8.204;2023-09-12T07:34:04;101257.56;;;23.85;100.00
48968;BME280;46511;53.148;8.204;2023-09-12T07:36:34;101257.69;;;24.09;100.00
48968;BME280;46511;53.148;8.204;2023-09-12T07:39:00;101261.94;;;24.46;100.00
48968;BME280;46511;53.148;8.204;2023-09-12T07:41:32;101270.09;;;24.70;100.00
48968;BME280;46511;53.148;8.204;2023-09-12T07:43:58;101280.31;;;24.76;100.00
48968;BME280;46511;53.148;8.204;2023-09-12T07:46:32;101284.13;;;25.24;100.00
48968;BME280;46511;53.148;8.204;2023-09-12T07:49:03;101282.09;;;25.02;100.00
48968;BME280;46511;53.148;8.204;2023-09-12T07:51:35;101295.41;;;24.71;100.00
48968;BME280;46511;53.148;8.204;2023-09-12T07:54:06;101298.94;;;24.63;100.00
48968;BME280;46511;53.148;8.204;2023-09-12T07:56:38;101309.91;;;24.96;100.00
48968;BME280;46511;53.148;8.204;2023-09-12T07:59:09;101306.59;;;24.60;100.00
48968;BME280;46511;53.148;8.204;2023-09-12T08:01:38;101308.69;;;24.74;100.00
48968;BME280;46511;53.148;8.204;2023-09-12T08:04:09;101311.41;;;24.32;100.00
48968;BME280;46511;53.148;8.204;2023-09-12T08:06:40;101316.31;;;24.28;100.00
48968;BME280;46511;53.148;8.204;2023-09-12T08:09:12;101320.28;;;24.42;100.00
48968;BME280;46511;53.148;8.204;2023-09-12T08:11:43;101309.88;;;24.88;100.00
48968;BME280;46511;53.148;8.204;2023-09-12T08:14:14;101305.88;;;25.41;100.00
48968;BME280;46511;53.148;8.204;2023-09-12T08:16:46;101313.69;;;25.19;100.00
48968;BME280;46511;53.148;8.204;2023-09-12T08:19:12;101327.56;;;24.84;100.00
48968;BME280;46511;53.148;8.204;2023-09-12T08:21:44;101310.44;;;25.08;100.00
48968;BME280;46511;53.148;8.204;2023-09-12T08:24:16;101327.78;;;25.15;100.00
48968;BME280;46511;53.148;8.204;2023-09-12T08:26:48;101322.03;;;25.34;100.00
48968;BME280;46511;53.148;8.204;2023-09-12T08:29:15;101311.50;;;26.19;100.00
48968;BME280;46511;53.148;8.204;2023-09-12T08:31:47;101306.88;;;25.72;100.00
48968;BME280;46511;53.148;8.204;2023-09-12T08:34:18;101307.41;;;27.39;100.00
48968;BME280;46511;53.148;8.204;2023-09-12T08:36:51;101309.19;;;27.09;100.00
48968;BME280;46511;53.148;8.204;2023-09-12T08:39:19;101315.31;;;26.80;100.00
48968;BME280;46511;53.148;8.204;2023-09-12T08:41:54;101311.69;;;26.65;100.00
48968;BME280;46511;53.148;8.204;2023-09-12T08:44:21;101306.94;;;26.59;100.00
48968;BME280;46511;53.148;8.204;2023-09-12T08:46:52;101307.53;;;25.90;100.00
48968;BME280;46511;53.148;8.204;2023-09-12T08:49:19;101302.72;;;26.01;100.00
48968;BME280;46511;53.148;8.204;2023-09-12T08:51:50;101313.34;;;25.79;100.00
48968;BME280;46511;53.148;8.204;2023-09-12T08:54:22;101311.41;;;25.96;100.00
48968;BME280;46511;53.148;8.204;2023-09-12T08:56:53;101324.91;;;25.16;100.00
48968;BME280;46511;53.148;8.204;2023-09-12T08:59:24;101327.34;;;24.77;100.00
48968;BME280;46511;53.148;8.204;2023-09-12T09:01:57;101337.69;;;24.65;100.00
48968;BME280;46511;53.148;8.204;2023-09-12T09:04:24;101339.56;;;24.65;100.00
48968;BME280;46511;53.148;8.204;2023-09-12T09:06:59;101340.56;;;24.72;100.00
48968;BME280;46511;53.148;8.204;2023-09-12T09:09:32;101338.47;;;25.08;100.00
48968;BME280;46511;53.148;8.204;2023-09-12T09:12:07;101338.84;;;25.62;100.00
48968;BME280;46511;53.148;8.204;2023-09-12T09:14:39;101338.53;;;25.41;100.00
48968;BME280;46511;53.148;8.204;2023-09-12T09:17:11;101331.53;;;25.46;100.00
48968;BME280;46511;53.148;8.204;2023-09-12T09:19:44;101318.63;;;25.73;100.00
48968;BME280;46511;53.148;8.204;2023-09-12T09:22:16;101327.75;;;25.96;100.00
48968;BME280;46511;53.148;8.204;2023-09-12T09:24:47;101330.00;;;25.76;100.00
48968;BME280;46511;53.148;8.204;2023-09-12T09:27:17;101336.47;;;25.59;100.00
48968;BME280;46511;53.148;8.204;2023-09-12T09:30:04;101327.25;;;25.92;100.00
48968;BME280;46511;53.148;8.204;2023-09-12T09:32:36;101332.94;;;26.22;100.00
48968;BME280;46511;53.148;8.204;2023-09-12T09:35:07;101341.19;;;26.53;100.00
48968;BME280;46511;53.148;8.204;2023-09-12T09:37:41;101341.09;;;26.30;100.00
48968;BME280;46511;53.148;8.204;2023-09-12T09:40:07;101344.81;;;25.74;100.00
48968;BME280;46511;53.148;8.204;2023-09-12T09:42:40;101342.53;;;26.02;100.00
48968;BME280;46511;53.148;8.204;2023-09-12T09:45:12;101345.28;;;25.85;100.00
48968;BME280;46511;53.148;8.204;2023-09-12T09:47:43;101339.41;;;26.21;100.00
48968;BME280;46511;53.148;8.204;2023-09-12T09:50:15;101351.94;;;25.42;100.00
48968;BME280;46511;53.148;8.204;2023-09-12T09:52:42;101353.78;;;25.17;100.00
48968;BME280;46511;53.148;8.204;2023-09-12T09:55:15;101349.38;;;25.57;100.00
48968;BME280;46511;53.148;8.204;2023-09-12T09:57:41;101358.19;;;25.10;100.00
48968;BME280;46511;53.148;8.204;2023-09-12T10:00:12;101356.91;;;24.80;100.00
48968;BME280;46511;53.148;8.204;2023-09-12T10:02:45;101358.22;;;25.43;100.00
48968;BME280;46511;53.148;8.204;2023-09-12T10:05:20;101357.56;;;25.32;100.00
48968;BME280;46511;53.148;8.204;2023-09-12T10:07:51;101363.94;;;24.22;100.00
48968;BME280;46511;53.148;8.204;2023-09-12T10:10:20;101365.84;;;24.56;100.00
48968;BME280;46511;53.148;8.204;2023-09-12T10:12:49;101357.56;;;24.32;100.00
48968;BME280;46511;53.148;8.204;2023-09-12T10:15:28;101363.03;;;24.90;100.00
48968;BME280;46511;53.148;8.204;2023-09-12T10:18:02;101364.16;;;24.55;100.00
48968;BME280;46511;53.148;8.204;2023-09-12T10:20:42;101346.66;;;25.16;100.00
48968;BME280;46511;53.148;8.204;2023-09-12T10:23:19;101343.19;;;24.98;100.00
48968;BME280;46511;53.148;8.204;2023-09-12T10:25:52;101345.13;;;25.14;100.00
48968;BME280;46511;53.148;8.204;2023-09-12T10:28:27;101340.72;;;25.21;100.00
48968;BME280;46511;53.148;8.204;2023-09-12T10:30:59;101331.88;;;25.27;100.00
48968;BME280;46511;53.148;8.204;2023-09-12T10:33:32;101317.59;;;26.29;100.00
48968;BME280;46511;53.148;8.204;2023-09-12T10:36:05;101314.53;;;27.02;100.00
48968;BME280;46511;53.148;8.204;2023-09-12T10:38:42;101311.56;;;26.81;100.00
48968;BME280;46511;53.148;8.204;2023-09-12T10:41:15;101309.03;;;27.48;100.00
48968;BME280;46511;53.148;8.204;2023-09-12T10:43:43;101302.75;;;27.25;100.00
48968;BME280;46511;53.148;8.204;2023-09-12T10:46:21;101304.41;;;26.80;100.00
48968;BME280;46511;53.148;8.204;2023-09-12T10:48:47;101296.84;;;28.84;100.00
48968;BME280;46511;53.148;8.204;2023-09-12T10:51:13;101290.94;;;32.53;99.40
48968;BME280;46511;53.148;8.204;2023-09-12T10:53:47;101284.25;;;32.74;87.39
48968;BME280;46511;53.148;8.204;2023-09-12T10:56:21;101291.03;;;33.35;82.63
48968;BME280;46511;53.148;8.204;2023-09-12T11:01:35;101284.88;;;33.64;77.99
48968;BME280;46511;53.148;8.204;2023-09-12T11:06:58;101282.13;;;33.39;77.13
48968;BME280;46511;53.148;8.204;2023-09-12T11:09:29;101277.09;;;33.30;79.04
48968;BME280;46511;53.148;8.204;2023-09-12T11:12:04;101287.59;;;35.46;64.23
48968;BME280;46511;53.148;8.204;2023-09-12T11:14:45;101284.47;;;34.41;64.29
48968;BME280;46511;53.148;8.204;2023-09-12T11:17:37;101284.59;;;35.47;63.69
48968;BME280;46511;53.148;8.204;2023-09-12T11:20:09;101286.84;;;36.89;53.73
48968;BME280;46511;53.148;8.204;2023-09-12T11:22:42;101275.47;;;39.44;44.73
48968;BME280;46511;53.148;8.204;2023-09-12T11:25:19;101282.63;;;40.19;42.67
48968;BME280;46511;53.148;8.204;2023-09-12T11:30:28;101268.88;;;41.72;38.94
48968;BME280;46511;53.148;8.204;2023-09-12T11:33:05;101272.75;;;40.59;38.68
48968;BME280;46511;53.148;8.204;2023-09-12T11:35:41;101278.38;;;41.20;37.40
48968;BME280;46511;53.148;8.204;2023-09-12T11:38:14;101284.81;;;39.64;40.22
48968;BME280;46511;53.148;8.204;2023-09-12T11:40:58;101294.00;;;38.08;43.29
48968;BME280;46511;53.148;8.204;2023-09-12T11:43:30;101291.44;;;39.58;40.46
48968;BME280;46511;53.148;8.204;2023-09-12T11:46:01;101285.03;;;40.83;38.47
48968;BME280;46511;53.148;8.204;2023-09-12T11:48:33;101278.94;;;40.96;37.75
48968;BME280;46511;53.148;8.204;2023-09-12T11:50:59;101284.50;;;41.62;35.89
48968;BME280;46511;53.148;8.204;2023-09-12T11:53:32;101276.75;;;39.04;39.18
48968;BME280;46511;53.148;8.204;2023-09-12T11:56:06;101284.28;;;41.33;37.18
48968;BME280;46511;53.148;8.204;2023-09-12T11:58:38;101281.59;;;39.46;41.16
48968;BME280;46511;53.148;8.204;2023-09-12T12:01:11;101276.03;;;39.46;39.16
48968;BME280;46511;53.148;8.204;2023-09-12T12:03:43;101281.13;;;40.79;38.37
48968;BME280;46511;53.148;8.204;2023-09-12T12:06:14;101280.53;;;39.52;39.27
48968;BME280;46511;53.148;8.204;2023-09-12T12:08:46;101277.13;;;37.54;42.73
48968;BME280;46511;53.148;8.204;2023-09-12T12:11:18;101269.09;;;37.36;43.27
48968;BME280;46511;53.148;8.204;2023-09-12T12:13:49;101262.16;;;38.33;41.00
48968;BME280;46511;53.148;8.204;2023-09-12T12:16:21;101253.91;;;40.13;39.12
48968;BME280;46511;53.148;8.204;2023-09-12T12:18:48;101254.34;;;37.02;42.35
48968;BME280;46511;53.148;8.204;2023-09-12T12:21:19;101248.53;;;35.66;49.57
48968;BME280;46511;53.148;8.204;2023-09-12T12:23:57;101243.91;;;36.07;48.09
48968;BME280;46511;53.148;8.204;2023-09-12T12:26:33;101245.13;;;39.37;39.83
48968;BME280;46511;53.148;8.204;2023-09-12T12:29:05;101237.97;;;41.43;36.08
48968;BME280;46511;53.148;8.204;2023-09-12T12:31:36;101243.75;;;41.66;34.63
48968;BME280;46511;53.148;8.204;2023-09-12T12:34:08;101238.50;;;38.52;39.69
48968;BME280;46511;53.148;8.204;2023-09-12T12:36:42;101244.59;;;38.54;39.32
48968;BME280;46511;53.148;8.204;2023-09-12T12:39:10;101236.22;;;38.00;41.63
48968;BME280;46511;53.148;8.204;2023-09-12T12:41:42;101243.88;;;38.91;38.79
48968;BME280;46511;53.148;8.204;2023-09-12T12:44:14;101253.16;;;38.04;41.56
48968;BME280;46511;53.148;8.204;2023-09-12T12:46:53;101250.56;;;35.59;45.15
48968;BME280;46511;53.148;8.204;2023-09-12T12:49:25;101241.53;;;35.98;45.65
48968;BME280;46511;53.148;8.204;2023-09-12T12:51:56;101244.28;;;33.96;56.36
48968;BME280;46511;53.148;8.204;2023-09-12T12:54:30;101240.63;;;33.59;66.99
48968;BME280;46511;53.148;8.204;2023-09-12T12:57:03;101243.41;;;36.10;52.33
48968;BME280;46511;53.148;8.204;2023-09-12T12:59:34;101243.69;;;34.73;54.64
48968;BME280;46511;53.148;8.204;2023-09-12T13:02:07;101247.75;;;33.67;59.01
48968;BME280;46511;53.148;8.204;2023-09-12T13:04:38;101246.72;;;33.43;60.48